createdAt,value
2022-09-11T00:02:02.286Z,58.81
2022-09-11T00:05:08.630Z,58.73
2022-09-11T00:08:14.473Z,58.70
2022-09-11T00:11:19.564Z,58.69
2022-09-11T00:14:26.916Z,58.70
2022-09-11T00:17:32.249Z,58.67
2022-09-11T00:20:37.530Z,58.64
2022-09-11T00:23:43.965Z,58.66
2022-09-11T00:26:50.762Z,58.66
2022-09-11T00:29:56.542Z,58.61
2022-09-11T00:33:02.189Z,58.63
2022-09-11T00:36:16.075Z,58.60
2022-09-11T00:39:21.594Z,58.64
2022-09-11T00:42:27.125Z,58.60
2022-09-11T00:45:41.220Z,58.64
2022-09-11T00:48:49.835Z,58.66
2022-09-11T00:51:55.637Z,58.69
2022-09-11T00:55:16.008Z,58.65
2022-09-11T00:58:33.895Z,58.68
2022-09-11T01:01:40.015Z,58.70
2022-09-11T01:04:46.486Z,58.74
2022-09-11T01:07:53.092Z,58.75
2022-09-11T01:11:37.451Z,58.73
2022-09-11T01:15:14.772Z,58.77
2022-09-11T01:18:40.241Z,58.90
2022-09-11T01:22:07.260Z,58.97
2022-09-11T01:25:34.942Z,59.06
2022-09-11T01:29:01.649Z,59.07
2022-09-11T01:32:26.685Z,59.12
2022-09-11T01:35:48.783Z,59.11
2022-09-11T01:39:19.306Z,59.17
2022-09-11T01:42:32.815Z,59.26
2022-09-11T01:45:39.969Z,59.38
2022-09-11T01:48:56.955Z,59.50
2022-09-11T01:52:04.754Z,59.44
2022-09-11T01:55:16.109Z,59.53
2022-09-11T01:58:32.304Z,59.67
2022-09-11T02:01:43.582Z,59.78
2022-09-11T02:04:59.402Z,59.85
2022-09-11T02:08:11.458Z,59.89
2022-09-11T02:11:21.689Z,59.98
2022-09-11T02:14:43.313Z,60.12
2022-09-11T02:18:03.121Z,60.07
2022-09-11T02:21:09.813Z,60.17
2022-09-11T02:24:18.710Z,60.23
2022-09-11T02:27:29.819Z,60.26
2022-09-11T02:30:37.575Z,60.38
2022-09-11T02:33:51.242Z,60.54
2022-09-11T02:37:27.035Z,60.62
2022-09-11T02:40:55.378Z,60.66
2022-09-11T02:44:13.855Z,60.65
2022-09-11T02:47:47.829Z,60.74
2022-09-11T02:51:03.853Z,60.76
2022-09-11T02:54:46.918Z,60.88
2022-09-11T02:57:58.117Z,60.91
2022-09-11T03:01:05.007Z,61.03
2022-09-11T03:04:11.340Z,61.09
2022-09-11T03:07:18.659Z,61.17
2022-09-11T03:10:25.504Z,61.21
2022-09-11T03:13:31.744Z,61.25
2022-09-11T03:16:41.016Z,61.24
2022-09-11T03:19:47.255Z,61.22
2022-09-11T03:22:55.588Z,61.25
2022-09-11T03:26:02.317Z,61.31
2022-09-11T03:29:10.604Z,61.36
2022-09-11T03:32:17.944Z,61.43
2022-09-11T03:35:26.227Z,61.39
2022-09-11T03:38:32.620Z,61.38
2022-09-11T03:41:40.327Z,61.43
2022-09-11T03:44:46.478Z,61.46
2022-09-11T03:47:54.520Z,61.49
2022-09-11T03:51:01.214Z,61.50
2022-09-11T03:54:07.657Z,61.51
2022-09-11T03:57:15.301Z,61.41
2022-09-11T04:00:23.251Z,61.43
2022-09-11T04:03:30.833Z,61.48
2022-09-11T04:06:37.339Z,61.50
2022-09-11T04:09:46.018Z,61.58
2022-09-11T04:12:51.067Z,61.61
2022-09-11T04:15:56.837Z,61.61
2022-09-11T04:19:05.676Z,61.62
2022-09-11T04:22:12.701Z,61.62
2022-09-11T04:25:19.268Z,61.59
2022-09-11T04:28:26.996Z,61.64
2022-09-11T04:31:35.866Z,61.68
2022-09-11T04:34:42.557Z,61.74
2022-09-11T04:37:50.407Z,61.66
2022-09-11T04:40:56.833Z,61.69
2022-09-11T04:44:05.450Z,61.76
2022-09-11T04:47:13.105Z,61.83
2022-09-11T04:50:19.578Z,61.86
2022-09-11T04:53:28.872Z,61.86
2022-09-11T04:56:35.765Z,61.91
2022-09-11T04:59:42.466Z,61.94
2022-09-11T05:02:49.988Z,61.95
2022-09-11T05:05:55.765Z,61.97
2022-09-11T05:09:01.421Z,61.99
2022-09-11T05:12:10.109Z,62.00
2022-09-11T05:15:16.799Z,61.95
2022-09-11T05:18:24.735Z,61.97
2022-09-11T05:21:33.133Z,62.02
2022-09-11T05:24:40.635Z,62.06
2022-09-11T05:27:48.420Z,62.08
2022-09-11T05:30:56.635Z,62.10
2022-09-11T05:34:06.500Z,62.09
2022-09-11T05:37:12.651Z,62.06
2022-09-11T05:40:20.658Z,62.01
2022-09-11T05:43:26.105Z,61.87
2022-09-11T05:46:33.990Z,61.84
2022-09-11T05:49:39.394Z,61.83
2022-09-11T05:52:48.095Z,61.83
2022-09-11T05:55:54.496Z,61.89
2022-09-11T05:59:00.296Z,61.92
2022-09-11T06:02:08.421Z,62.01
2022-09-11T06:05:17.439Z,62.08
2022-09-11T06:08:24.144Z,62.10
2022-09-11T06:11:33.430Z,62.15
2022-09-11T06:14:41.067Z,62.17
2022-09-11T06:17:47.221Z,62.15
2022-09-11T06:20:55.539Z,62.14
2022-09-11T06:24:05.522Z,62.12
2022-09-11T06:27:14.011Z,62.19
2022-09-11T06:30:21.313Z,62.23
2022-09-11T06:33:31.412Z,62.24
2022-09-11T06:36:39.572Z,62.17
2022-09-11T06:39:46.715Z,62.17
2022-09-11T06:42:55.289Z,62.20
2022-09-11T06:46:01.829Z,62.14
2022-09-11T06:49:09.335Z,62.17
2022-09-11T06:52:34.838Z,62.10
2022-09-11T06:55:42.870Z,62.10
2022-09-11T06:58:50.024Z,62.13
2022-09-11T07:01:57.505Z,62.10
2022-09-11T07:05:03.721Z,62.11
2022-09-11T07:08:12.711Z,62.07
2022-09-11T07:11:19.821Z,61.98
2022-09-11T07:14:27.620Z,61.88
2022-09-11T07:17:34.807Z,61.87
2022-09-11T07:20:43.197Z,61.84
2022-09-11T07:23:51.662Z,61.84
2022-09-11T07:26:58.442Z,61.89
2022-09-11T07:30:06.303Z,61.91
2022-09-11T07:33:15.476Z,61.88
2022-09-11T07:36:24.336Z,61.98
2022-09-11T07:39:31.056Z,62.01
2022-09-11T07:42:40.539Z,62.02
2022-09-11T07:45:48.143Z,62.18
2022-09-11T07:48:55.286Z,62.17
2022-09-11T07:52:02.836Z,62.20
2022-09-11T07:55:13.842Z,62.23
2022-09-11T07:58:20.446Z,62.21
2022-09-11T08:01:34.017Z,62.19
2022-09-11T08:04:40.038Z,62.32
2022-09-11T08:07:46.898Z,62.37
2022-09-11T08:10:53.756Z,62.44
2022-09-11T08:14:08.587Z,62.60
2022-09-11T08:17:14.358Z,62.62
2022-09-11T08:20:22.814Z,62.74
2022-09-11T08:23:30.027Z,62.76
2022-09-11T08:26:39.229Z,62.89
2022-09-11T08:29:44.150Z,63.02
2022-09-11T08:32:52.385Z,63.10
2022-09-11T08:36:00.189Z,63.25
2022-09-11T08:39:11.913Z,63.32
2022-09-11T08:42:25.040Z,63.33
2022-09-11T08:45:35.184Z,63.24
2022-09-11T08:48:46.319Z,63.27
2022-09-11T08:51:52.348Z,63.33
2022-09-11T08:55:02.401Z,63.52
2022-09-11T08:58:22.513Z,63.61
2022-09-11T09:02:00.182Z,63.55
2022-09-11T09:05:43.955Z,63.59
2022-09-11T09:09:06.146Z,63.75
2022-09-11T09:12:24.654Z,63.76
2022-09-11T09:15:49.117Z,63.78
2022-09-11T09:19:02.282Z,63.83
2022-09-11T09:22:38.096Z,63.85
2022-09-11T09:25:47.786Z,63.82
2022-09-11T09:29:05.822Z,63.90
2022-09-11T09:32:18.199Z,63.85
2022-09-11T09:35:57.249Z,63.88
2022-09-11T09:39:05.816Z,63.95
2022-09-11T09:42:38.318Z,64.02
2022-09-11T09:46:31.272Z,64.04
2022-09-11T09:49:41.561Z,64.20
2022-09-11T09:52:48.946Z,64.14
2022-09-11T09:55:54.679Z,64.14
2022-09-11T09:59:14.063Z,64.12
2022-09-11T10:02:19.837Z,64.24
2022-09-11T10:05:46.370Z,64.20
2022-09-11T10:08:52.863Z,64.21
2022-09-11T10:11:59.557Z,64.23
2022-09-11T10:15:14.508Z,64.25
2022-09-11T10:18:53.493Z,64.24
2022-09-11T10:21:58.124Z,64.17
2022-09-11T10:25:26.917Z,64.30
2022-09-11T10:28:45.157Z,64.22
2022-09-11T10:31:56.252Z,64.33
2022-09-11T10:35:05.205Z,64.44
2022-09-11T10:38:27.091Z,64.44
2022-09-11T10:41:43.027Z,64.46
2022-09-11T10:44:49.940Z,64.40
2022-09-11T10:47:57.252Z,64.43
2022-09-11T10:51:06.272Z,64.48
2022-09-11T10:54:54.443Z,64.56
2022-09-11T10:58:07.248Z,64.68
2022-09-11T11:01:13.311Z,64.66
2022-09-11T11:04:18.437Z,64.65
2022-09-11T11:08:09.053Z,64.70
2022-09-11T11:11:39.695Z,64.66
2022-09-11T11:15:30.073Z,64.70
2022-09-11T11:18:51.371Z,64.76
2022-09-11T11:22:16.510Z,64.83
2022-09-11T11:25:36.177Z,64.89
2022-09-11T11:29:12.556Z,64.92
2022-09-11T11:32:44.860Z,64.92
2022-09-11T11:36:11.245Z,65.00
2022-09-11T11:39:39.921Z,64.98
2022-09-11T11:42:56.811Z,65.03
2022-09-11T11:46:11.305Z,64.96
2022-09-11T11:49:30.380Z,65.00
2022-09-11T11:52:54.432Z,64.97
2022-09-11T11:56:49.854Z,64.99
2022-09-11T12:00:04.342Z,65.14
2022-09-11T12:03:24.133Z,65.23
2022-09-11T12:06:33.433Z,65.33
2022-09-11T12:09:40.480Z,65.26
2022-09-11T12:12:53.417Z,65.30
2022-09-11T12:16:25.264Z,65.38
2022-09-11T12:19:34.863Z,65.42
2022-09-11T12:22:56.408Z,65.62
2022-09-11T12:26:05.886Z,65.54
2022-09-11T12:29:33.589Z,65.69
2022-09-11T12:32:41.866Z,65.80
2022-09-11T12:36:05.861Z,65.98
2022-09-11T12:39:21.007Z,66.05
2022-09-11T12:42:42.625Z,66.10
2022-09-11T12:45:54.228Z,66.02
2022-09-11T12:49:22.530Z,66.01
2022-09-11T12:52:33.536Z,65.96
2022-09-11T12:55:51.276Z,66.03
2022-09-11T12:58:59.933Z,66.18
2022-09-11T13:02:06.168Z,66.27
2022-09-11T13:05:13.820Z,66.24
2022-09-11T13:08:36.029Z,66.28
2022-09-11T13:12:04.328Z,66.32
2022-09-11T13:15:13.204Z,66.31
2022-09-11T13:18:47.832Z,66.39
2022-09-11T13:21:56.141Z,66.41
2022-09-11T13:25:02.932Z,66.45
2022-09-11T13:28:21.369Z,66.48
2022-09-11T13:31:36.982Z,66.56
2022-09-11T13:34:45.416Z,66.60
2022-09-11T13:37:54.542Z,66.62
2022-09-11T13:41:07.670Z,66.65
2022-09-11T13:44:15.297Z,66.72
2022-09-11T13:47:38.498Z,66.79
2022-09-11T13:50:44.987Z,66.75
2022-09-11T13:53:52.517Z,66.78
2022-09-11T13:57:15.681Z,66.82
2022-09-11T14:00:23.329Z,66.84
2022-09-11T14:03:43.550Z,66.89
2022-09-11T14:06:50.382Z,66.90
2022-09-11T14:09:56.941Z,66.93
2022-09-11T14:13:20.994Z,67.08
2022-09-11T14:16:36.786Z,67.14
2022-09-11T14:19:47.171Z,67.17
2022-09-11T14:22:53.390Z,67.13
2022-09-11T14:26:25.042Z,67.23
2022-09-11T14:29:47.826Z,67.25
2022-09-11T14:32:54.997Z,67.35
2022-09-11T14:36:07.022Z,67.37
2022-09-11T14:39:11.339Z,67.30
2022-09-11T14:42:17.811Z,67.36
2022-09-11T14:45:35.262Z,67.43
2022-09-11T14:48:42.450Z,67.56
2022-09-11T14:51:53.922Z,67.65
2022-09-11T14:54:59.795Z,67.73
2022-09-11T14:58:05.418Z,67.81
2022-09-11T15:01:16.952Z,67.85
2022-09-11T15:04:41.712Z,67.90
2022-09-11T15:07:55.539Z,67.97
2022-09-11T15:11:03.353Z,68.00
2022-09-11T15:14:23.447Z,68.10
2022-09-11T15:17:19.363Z,68.15
2022-09-11T15:20:26.194Z,68.20
2022-09-11T15:23:31.915Z,68.26
2022-09-11T15:26:37.920Z,68.26
2022-09-11T15:29:47.635Z,68.31
2022-09-11T15:32:53.649Z,68.31
2022-09-11T15:36:01.051Z,68.36
2022-09-11T15:39:07.992Z,68.40
2022-09-11T15:42:15.726Z,68.48
2022-09-11T15:45:24.090Z,68.47
2022-09-11T15:48:31.175Z,68.48
2022-09-11T15:51:38.714Z,68.50
2022-09-11T15:54:46.173Z,68.60
2022-09-11T15:57:53.112Z,68.55
2022-09-11T16:01:00.307Z,68.48
2022-09-11T16:04:08.397Z,68.55
2022-09-11T16:07:16.873Z,68.63
2022-09-11T16:10:22.208Z,68.75
2022-09-11T16:13:29.334Z,68.83
2022-09-11T16:16:35.836Z,68.88
2022-09-11T16:19:41.550Z,68.96
2022-09-11T16:22:49.015Z,68.99
2022-09-11T16:25:57.969Z,68.94
2022-09-11T16:29:03.117Z,69.01
2022-09-11T16:32:08.791Z,69.17
2022-09-11T16:35:17.266Z,69.26
2022-09-11T16:38:23.861Z,69.29
2022-09-11T16:41:35.137Z,69.31
2022-09-11T16:44:37.723Z,69.35
2022-09-11T16:47:32.175Z,69.44
2022-09-11T16:50:36.637Z,69.42
2022-09-11T16:53:43.922Z,69.42
2022-09-11T16:56:50.915Z,69.39
2022-09-11T16:59:57.013Z,69.49
2022-09-11T17:25:19.137Z,70.33
2022-09-11T17:28:26.379Z,70.37
2022-09-11T17:31:32.864Z,70.42
2022-09-11T17:34:41.476Z,70.47
2022-09-11T17:37:47.598Z,70.44
2022-09-11T17:40:54.306Z,70.41
2022-09-11T17:44:00.646Z,70.38
2022-09-11T17:47:07.469Z,70.33
2022-09-11T17:50:14.207Z,70.28
2022-09-11T17:53:19.807Z,70.32
2022-09-11T17:56:28.297Z,70.35
2022-09-11T17:59:35.352Z,70.22
2022-09-11T18:02:41.267Z,70.23
2022-09-11T18:05:46.315Z,70.26
2022-09-11T18:08:53.399Z,70.29
2022-09-11T18:12:01.820Z,70.22
2022-09-11T18:15:07.306Z,70.28
2022-09-11T18:18:13.352Z,70.39
2022-09-11T18:21:21.808Z,70.41
2022-09-11T18:24:29.762Z,70.40
2022-09-11T18:27:36.988Z,70.36
2022-09-11T18:30:42.071Z,70.36
2022-09-11T18:33:52.651Z,70.34
2022-09-11T18:37:03.983Z,70.37
2022-09-11T18:40:10.689Z,70.41
2022-09-11T18:43:15.760Z,70.47
2022-09-11T18:46:21.286Z,70.52
2022-09-11T18:49:28.853Z,70.49
2022-09-11T18:52:36.874Z,70.53
2022-09-11T18:55:43.543Z,70.58
2022-09-11T18:58:55.263Z,70.57
2022-09-11T19:02:02.935Z,70.61
2022-09-11T19:05:08.542Z,70.67
2022-09-11T19:08:16.177Z,70.72
2022-09-11T19:11:29.045Z,70.74
2022-09-11T19:14:37.070Z,70.77
2022-09-11T19:17:47.740Z,70.81
2022-09-11T19:20:53.766Z,70.82
2022-09-11T19:24:02.732Z,70.76
2022-09-11T19:27:10.187Z,70.76
2022-09-11T19:30:20.858Z,70.70
2022-09-11T19:33:29.131Z,70.74
2022-09-11T19:36:37.663Z,70.66
2022-09-11T19:39:43.280Z,70.65
2022-09-11T19:42:50.757Z,70.75
2022-09-11T19:45:56.630Z,70.83
2022-09-11T19:49:04.132Z,70.88
2022-09-11T19:52:09.896Z,70.89
2022-09-11T19:55:17.273Z,70.90
2022-09-11T19:58:24.153Z,70.91
2022-09-11T20:01:32.615Z,70.95
2022-09-11T20:04:39.872Z,71.02
2022-09-11T20:07:46.143Z,71.07
2022-09-11T20:10:52.483Z,71.06
2022-09-11T20:14:00.290Z,71.08
2022-09-11T20:17:07.721Z,71.11
2022-09-11T20:20:14.247Z,71.08
2022-09-11T20:23:19.869Z,71.10
2022-09-11T20:26:38.314Z,71.13
2022-09-11T20:29:46.429Z,71.15
2022-09-11T20:32:53.618Z,71.19
2022-09-11T20:36:00.565Z,71.21
2022-09-11T20:39:10.114Z,71.16
2022-09-11T20:42:16.440Z,71.09
2022-09-11T20:45:24.590Z,71.12
2022-09-11T20:48:29.909Z,71.21
2022-09-11T20:51:37.841Z,71.23
2022-09-11T20:54:45.927Z,71.28
2022-09-11T20:57:52.128Z,71.35
2022-09-11T21:01:00.655Z,71.41
2022-09-11T21:04:10.866Z,71.42
2022-09-11T21:07:18.115Z,71.42
2022-09-11T21:10:25.278Z,71.37
2022-09-11T21:13:32.559Z,71.39
2022-09-11T21:16:39.073Z,71.41
2022-09-11T21:19:45.477Z,71.35
2022-09-11T21:22:53.550Z,71.41
2022-09-11T21:25:59.073Z,71.51
2022-09-11T21:29:05.341Z,71.57
2022-09-11T21:32:11.504Z,71.59
2022-09-11T21:35:16.841Z,71.53
2022-09-11T21:38:23.060Z,71.56
2022-09-11T21:41:28.619Z,71.54
2022-09-11T21:44:35.143Z,71.63
2022-09-11T21:47:41.500Z,71.72
2022-09-11T21:50:46.831Z,71.77
2022-09-11T21:53:55.802Z,71.82
2022-09-11T21:57:01.708Z,71.82
2022-09-11T22:00:15.802Z,71.74
2022-09-11T22:03:21.225Z,71.76
2022-09-11T22:06:27.666Z,71.68
2022-09-11T22:09:33.934Z,71.64
2022-09-11T22:12:39.436Z,71.74
2022-09-11T22:15:45.855Z,71.86
2022-09-11T22:18:55.773Z,71.93
2022-09-11T22:22:05.447Z,71.92
2022-09-11T22:25:12.389Z,71.80
2022-09-11T22:28:19.952Z,71.83
2022-09-11T22:31:31.681Z,71.87
2022-09-11T22:34:39.455Z,71.95
2022-09-11T22:37:47.190Z,72.00
2022-09-11T22:40:53.034Z,72.02
2022-09-11T22:43:59.355Z,72.05
2022-09-11T22:47:05.472Z,72.11
2022-09-11T22:50:11.232Z,72.08
2022-09-11T22:53:18.483Z,72.01
2022-09-11T22:56:24.942Z,72.03
2022-09-11T22:59:30.116Z,72.04
2022-09-11T23:02:35.406Z,72.05
2022-09-11T23:06:00.097Z,72.07
2022-09-11T23:09:07.815Z,72.02
2022-09-11T23:12:13.817Z,71.97
2022-09-11T23:15:20.565Z,72.00
2022-09-11T23:18:26.545Z,72.01
2022-09-11T23:21:31.885Z,72.03
2022-09-11T23:24:37.424Z,72.06
2022-09-11T23:27:43.887Z,72.00
2022-09-11T23:30:54.654Z,71.92
2022-09-11T23:34:01.234Z,71.88
2022-09-11T23:37:07.396Z,71.98
2022-09-11T23:40:12.173Z,72.15
2022-09-11T23:43:17.199Z,72.24
2022-09-11T23:46:22.336Z,72.23
2022-09-11T23:49:27.871Z,72.08
2022-09-11T23:52:32.731Z,72.05
2022-09-11T23:55:42.288Z,71.98
2022-09-11T23:58:48.348Z,71.87
